createdAt,value
2023-05-24T00:00:12.472Z,570.00
2023-05-24T00:01:12.478Z,570.00
2023-05-24T00:02:12.487Z,567.00
2023-05-24T00:03:12.503Z,566.00
2023-05-24T00:04:12.598Z,567.00
2023-05-24T00:05:12.471Z,567.00
2023-05-24T00:06:12.443Z,569.00
2023-05-24T00:07:12.504Z,569.00
2023-05-24T00:08:12.505Z,565.00
2023-05-24T00:09:12.518Z,566.00
2023-05-24T00:10:12.490Z,566.00
2023-05-24T00:11:12.506Z,566.00
2023-05-24T00:12:12.497Z,566.00
2023-05-24T00:13:12.554Z,566.00
2023-05-24T00:14:12.560Z,566.00
2023-05-24T00:15:12.566Z,566.00
2023-05-24T00:16:12.563Z,565.00
2023-05-24T00:17:12.537Z,564.00
2023-05-24T00:18:12.584Z,563.00
2023-05-24T00:19:12.577Z,562.00
2023-05-24T00:20:12.690Z,562.00
2023-05-24T00:21:12.573Z,562.00
2023-05-24T00:22:12.612Z,561.00
2023-05-24T00:23:12.594Z,559.00
2023-05-24T00:24:12.688Z,558.00
2023-05-24T00:25:12.654Z,558.00
2023-05-24T00:26:12.627Z,558.00
2023-05-24T00:27:12.638Z,557.00
2023-05-24T00:28:12.617Z,557.00
2023-05-24T00:29:12.636Z,560.00
2023-05-24T00:30:12.629Z,559.00
2023-05-24T00:31:12.645Z,559.00
2023-05-24T00:32:12.721Z,557.00
2023-05-24T00:33:12.670Z,559.00
2023-05-24T00:34:12.674Z,558.00
2023-05-24T00:35:12.660Z,556.00
2023-05-24T00:36:12.676Z,555.00
2023-05-24T00:37:12.683Z,555.00
2023-05-24T00:38:12.692Z,556.00
2023-05-24T00:39:12.690Z,555.00
2023-05-24T00:40:12.743Z,556.00
2023-05-24T00:41:12.756Z,556.00
2023-05-24T00:42:12.713Z,556.00
2023-05-24T00:43:12.721Z,556.00
2023-05-24T00:44:12.747Z,560.00
2023-05-24T00:45:12.754Z,563.00
2023-05-24T00:46:12.802Z,564.00
2023-05-24T00:47:12.786Z,565.00
2023-05-24T00:48:12.771Z,566.00
2023-05-24T00:49:12.770Z,563.00
2023-05-24T00:50:12.807Z,564.00
2023-05-24T00:51:12.842Z,564.00
2023-05-24T00:52:12.812Z,564.00
2023-05-24T00:53:12.814Z,564.00
2023-05-24T00:54:12.820Z,566.00
2023-05-24T00:55:12.844Z,566.00
2023-05-24T00:56:12.868Z,563.00
2023-05-24T00:57:12.866Z,564.00
2023-05-24T00:58:12.878Z,562.00
2023-05-24T00:59:12.886Z,562.00
2023-05-24T01:00:12.888Z,565.00
2023-05-24T01:01:12.986Z,567.00
2023-05-24T01:02:12.936Z,566.00
2023-05-24T01:03:13.083Z,566.00
2023-05-24T01:04:12.884Z,568.00
2023-05-24T01:05:12.894Z,567.00
2023-05-24T01:06:12.893Z,567.00
2023-05-24T01:07:12.890Z,566.00
2023-05-24T01:08:12.931Z,567.00
2023-05-24T01:09:12.912Z,567.00
2023-05-24T01:10:12.914Z,568.00
2023-05-24T01:11:12.924Z,564.00
2023-05-24T01:12:12.937Z,568.00
2023-05-24T01:13:12.931Z,568.00
2023-05-24T01:14:12.971Z,571.00
2023-05-24T01:15:13.022Z,571.00
2023-05-24T01:16:13.014Z,573.00
2023-05-24T01:17:12.970Z,573.00
2023-05-24T01:18:12.989Z,574.00
2023-05-24T01:19:12.998Z,571.00
2023-05-24T01:20:13.035Z,571.00
2023-05-24T01:21:12.990Z,569.00
2023-05-24T01:22:13.047Z,568.00
2023-05-24T01:23:13.042Z,568.00
2023-05-24T01:24:13.058Z,567.00
2023-05-24T01:25:13.044Z,564.00
2023-05-24T01:26:13.036Z,564.00
2023-05-24T01:27:13.072Z,562.00
2023-05-24T01:28:13.046Z,563.00
2023-05-24T01:29:13.094Z,566.00
2023-05-24T01:30:13.077Z,566.00
2023-05-24T01:31:13.128Z,567.00
2023-05-24T01:32:13.095Z,565.00
2023-05-24T01:33:13.080Z,565.00
2023-05-24T01:34:13.073Z,567.00
2023-05-24T01:35:13.121Z,568.00
2023-05-24T01:36:13.126Z,570.00
2023-05-24T01:37:13.095Z,570.00
2023-05-24T01:38:13.105Z,569.00
2023-05-24T01:39:13.123Z,567.00
2023-05-24T01:40:13.116Z,567.00
2023-05-24T01:41:13.138Z,568.00
2023-05-24T01:42:13.144Z,567.00
2023-05-24T01:43:13.135Z,567.00
2023-05-24T01:44:13.132Z,567.00
2023-05-24T01:45:13.162Z,568.00
2023-05-24T01:46:13.162Z,566.00
2023-05-24T01:47:13.207Z,563.00
2023-05-24T01:48:13.238Z,562.00
2023-05-24T01:49:13.219Z,563.00
2023-05-24T01:50:13.234Z,562.00
2023-05-24T01:51:13.184Z,561.00
2023-05-24T01:52:13.246Z,561.00
2023-05-24T01:53:13.232Z,561.00
2023-05-24T01:54:13.265Z,562.00
2023-05-24T01:55:13.253Z,561.00
2023-05-24T01:56:13.301Z,563.00
2023-05-24T01:57:13.301Z,563.00
2023-05-24T01:58:13.313Z,562.00
2023-05-24T01:59:13.323Z,562.00
2023-05-24T02:00:13.304Z,564.00
2023-05-24T02:01:13.341Z,565.00
2023-05-24T02:02:13.392Z,563.00
2023-05-24T02:03:13.415Z,564.00
2023-05-24T02:04:13.375Z,563.00
2023-05-24T02:05:13.353Z,564.00
2023-05-24T02:06:13.361Z,565.00
2023-05-24T02:07:13.398Z,565.00
2023-05-24T02:08:13.386Z,565.00
2023-05-24T02:09:13.405Z,566.00
2023-05-24T02:10:13.392Z,564.00
2023-05-24T02:11:13.450Z,564.00
2023-05-24T02:12:13.422Z,564.00
2023-05-24T02:13:13.481Z,564.00
2023-05-24T02:14:13.463Z,564.00
2023-05-24T02:15:13.474Z,562.00
2023-05-24T02:16:13.588Z,561.00
2023-05-24T02:17:13.520Z,561.00
2023-05-24T02:18:13.523Z,561.00
2023-05-24T02:19:13.533Z,561.00
2023-05-24T02:20:13.632Z,562.00
2023-05-24T02:21:13.537Z,562.00
2023-05-24T02:22:13.543Z,562.00
2023-05-24T02:23:13.573Z,562.00
2023-05-24T02:24:13.565Z,562.00
2023-05-24T02:25:13.578Z,563.00
2023-05-24T02:26:13.615Z,564.00
2023-05-24T02:27:13.577Z,564.00
2023-05-24T02:28:13.609Z,564.00
2023-05-24T02:29:13.622Z,566.00
2023-05-24T02:32:52.954Z,560.00
2023-05-24T02:33:52.896Z,562.00
2023-05-24T02:34:52.894Z,562.00
2023-05-24T02:35:52.902Z,560.00
2023-05-24T02:36:52.920Z,560.00
2023-05-24T02:37:52.883Z,561.00
2023-05-24T02:38:52.944Z,559.00
2023-05-24T02:39:52.865Z,559.00
2023-05-24T02:40:52.879Z,563.00
2023-05-24T02:41:52.895Z,563.00
2023-05-24T02:42:52.852Z,564.00
2023-05-24T02:43:52.872Z,565.00
2023-05-24T02:44:52.847Z,565.00
2023-05-24T02:45:52.919Z,565.00
2023-05-24T02:46:52.825Z,564.00
2023-05-24T02:47:52.861Z,564.00
2023-05-24T02:48:52.825Z,560.00
2023-05-24T02:49:52.824Z,560.00
2023-05-24T02:50:52.818Z,562.00
2023-05-24T02:51:52.933Z,564.00
2023-05-24T02:52:52.826Z,565.00
2023-05-24T02:53:52.779Z,567.00
2023-05-24T02:54:52.776Z,568.00
2023-05-24T02:55:52.787Z,568.00
2023-05-24T02:56:52.784Z,568.00
2023-05-24T02:57:52.753Z,570.00
2023-05-24T02:58:52.736Z,569.00
2023-05-24T02:59:52.739Z,570.00
2023-05-24T03:00:52.753Z,570.00
2023-05-24T03:01:52.784Z,569.00
2023-05-24T03:02:52.924Z,567.00
2023-05-24T03:03:52.850Z,562.00
2023-05-24T03:04:52.722Z,561.00
2023-05-24T03:05:52.691Z,560.00
2023-05-24T03:06:52.687Z,561.00
2023-05-24T03:07:52.691Z,560.00
2023-05-24T03:08:52.692Z,562.00
2023-05-24T03:09:52.697Z,564.00
2023-05-24T03:10:52.686Z,563.00
2023-05-24T03:11:52.704Z,562.00
2023-05-24T03:12:52.682Z,561.00
2023-05-24T03:13:52.696Z,562.00
2023-05-24T03:14:52.688Z,564.00
2023-05-24T03:15:52.677Z,563.00
2023-05-24T03:16:52.706Z,564.00
2023-05-24T03:17:52.745Z,565.00
2023-05-24T03:18:52.628Z,566.00
2023-05-24T03:19:52.718Z,565.00
2023-05-24T03:20:52.644Z,565.00
2023-05-24T03:21:52.601Z,564.00
2023-05-24T03:22:52.618Z,562.00
2023-05-24T03:23:52.625Z,560.00
2023-05-24T03:24:52.595Z,559.00
2023-05-24T03:25:52.589Z,561.00
2023-05-24T03:26:52.576Z,558.00
2023-05-24T03:27:52.564Z,558.00
2023-05-24T03:28:52.558Z,562.00
2023-05-24T03:29:52.575Z,560.00
2023-05-24T03:30:52.543Z,563.00
2023-05-24T03:31:52.588Z,564.00
2023-05-24T03:32:52.534Z,565.00
2023-05-24T03:33:52.529Z,564.00
2023-05-24T03:34:52.499Z,564.00
2023-05-24T03:35:52.514Z,567.00
2023-05-24T03:36:52.520Z,566.00
2023-05-24T03:37:52.521Z,566.00
2023-05-24T03:38:52.503Z,566.00
2023-05-24T03:39:52.498Z,564.00
2023-05-24T03:40:52.489Z,565.00
2023-05-24T03:41:52.492Z,564.00
2023-05-24T03:42:52.472Z,562.00
2023-05-24T03:43:52.457Z,560.00
2023-05-24T03:44:52.481Z,561.00
2023-05-24T03:45:52.464Z,564.00
2023-05-24T03:46:52.456Z,564.00
2023-05-24T03:47:52.481Z,568.00
2023-05-24T03:48:52.430Z,568.00
2023-05-24T03:49:52.426Z,567.00
2023-05-24T03:50:52.411Z,567.00
2023-05-24T03:51:52.412Z,567.00
2023-05-24T03:52:52.414Z,568.00
2023-05-24T03:53:52.390Z,565.00
2023-05-24T03:54:52.422Z,564.00
2023-05-24T03:55:52.389Z,567.00
2023-05-24T03:56:52.372Z,569.00
2023-05-24T03:57:52.394Z,567.00
2023-05-24T03:58:52.388Z,566.00
2023-05-24T03:59:52.350Z,567.00
2023-05-24T04:00:52.387Z,565.00
2023-05-24T04:01:52.342Z,566.00
2023-05-24T04:02:52.650Z,569.00
2023-05-24T04:03:52.412Z,570.00
2023-05-24T04:04:52.333Z,568.00
2023-05-24T04:05:52.299Z,568.00
2023-05-24T04:06:52.323Z,568.00
2023-05-24T04:07:52.297Z,567.00
2023-05-24T04:08:52.269Z,567.00
2023-05-24T04:09:52.254Z,567.00
2023-05-24T04:10:52.286Z,564.00
2023-05-24T04:11:52.281Z,563.00
2023-05-24T04:12:52.257Z,564.00
2023-05-24T04:13:52.265Z,565.00
2023-05-24T04:14:52.287Z,565.00
2023-05-24T04:15:52.242Z,565.00
2023-05-24T04:16:52.319Z,565.00
2023-05-24T04:17:52.308Z,564.00
2023-05-24T04:18:52.331Z,563.00
2023-05-24T04:19:52.240Z,567.00
2023-05-24T04:20:52.235Z,569.00
2023-05-24T04:21:52.216Z,568.00
2023-05-24T04:22:52.238Z,566.00
2023-05-24T04:23:52.285Z,565.00
2023-05-24T04:24:52.320Z,566.00
2023-05-24T04:25:52.331Z,565.00
2023-05-24T04:26:52.363Z,565.00
2023-05-24T04:27:52.358Z,564.00
2023-05-24T04:28:52.400Z,562.00
2023-05-24T04:29:52.401Z,561.00
2023-05-24T04:30:52.455Z,561.00
2023-05-24T04:31:52.446Z,560.00
2023-05-24T04:32:52.561Z,562.00
2023-05-24T04:33:52.458Z,558.00
2023-05-24T04:34:52.519Z,558.00
2023-05-24T04:35:52.497Z,558.00
2023-05-24T04:36:52.514Z,558.00
2023-05-24T04:37:52.543Z,560.00
2023-05-24T04:38:52.560Z,559.00
2023-05-24T04:39:52.568Z,562.00
2023-05-24T04:40:52.600Z,565.00
2023-05-24T04:41:52.641Z,565.00
2023-05-24T04:42:52.666Z,564.00
2023-05-24T04:43:52.656Z,564.00
2023-05-24T04:44:52.680Z,562.00
2023-05-24T04:45:52.690Z,561.00
2023-05-24T04:46:52.761Z,563.00
2023-05-24T04:47:52.914Z,562.00
2023-05-24T04:48:52.808Z,564.00
2023-05-24T04:49:52.805Z,564.00
2023-05-24T04:50:52.815Z,565.00
2023-05-24T04:51:55.024Z,564.00
2023-05-24T04:52:52.856Z,561.00
2023-05-24T04:53:52.867Z,560.00
2023-05-24T04:54:52.959Z,560.00
2023-05-24T04:55:52.892Z,560.00
2023-05-24T04:56:52.901Z,564.00
2023-05-24T04:57:52.908Z,564.00
2023-05-24T04:58:52.940Z,563.00
2023-05-24T04:59:52.958Z,560.00
2023-05-24T05:00:52.953Z,556.00
2023-05-24T05:02:00.429Z,554.00
2023-05-24T05:02:53.053Z,554.00
2023-05-24T05:03:52.992Z,554.00
2023-05-24T05:04:52.939Z,550.00
2023-05-24T05:05:52.941Z,551.00
2023-05-24T05:06:52.946Z,553.00
2023-05-24T05:07:52.924Z,555.00
2023-05-24T05:08:52.899Z,556.00
2023-05-24T05:09:52.913Z,556.00
2023-05-24T05:10:52.913Z,561.00
2023-05-24T05:11:52.886Z,561.00
2023-05-24T05:12:52.897Z,562.00
2023-05-24T05:13:52.889Z,564.00
2023-05-24T05:14:52.867Z,563.00
2023-05-24T05:15:52.880Z,564.00
2023-05-24T05:16:53.017Z,568.00
2023-05-24T05:17:52.905Z,572.00
2023-05-24T05:18:52.908Z,573.00
2023-05-24T05:19:52.859Z,572.00
2023-05-24T05:20:52.824Z,572.00
2023-05-24T05:21:52.817Z,573.00
2023-05-24T05:22:52.814Z,576.00
2023-05-24T05:23:52.806Z,577.00
2023-05-24T05:24:52.812Z,574.00
2023-05-24T05:25:52.789Z,574.00
2023-05-24T05:26:52.787Z,575.00
2023-05-24T05:27:53.252Z,576.00
2023-05-24T05:28:52.761Z,577.00
2023-05-24T05:29:52.799Z,577.00
2023-05-24T05:30:52.797Z,578.00
2023-05-24T05:31:52.838Z,642.00
2023-05-24T05:32:53.065Z,605.00
2023-05-24T05:33:52.946Z,594.00
2023-05-24T05:34:52.913Z,588.00
2023-05-24T05:35:54.836Z,592.00
2023-05-24T05:36:53.023Z,589.00
2023-05-24T05:37:53.030Z,588.00
2023-05-24T05:38:53.060Z,599.00
2023-05-24T05:39:53.124Z,604.00
2023-05-24T05:40:53.182Z,607.00
2023-05-24T05:41:53.202Z,612.00
2023-05-24T05:42:53.223Z,813.00
2023-05-24T05:43:53.261Z,768.00
2023-05-24T05:44:53.351Z,653.00
2023-05-24T05:46:00.404Z,636.00
2023-05-24T05:46:53.347Z,674.00
2023-05-24T05:47:53.780Z,681.00
2023-05-24T05:48:53.350Z,686.00
2023-05-24T05:49:53.321Z,693.00
2023-05-24T05:50:53.288Z,717.00
2023-05-24T05:51:53.330Z,878.00
2023-05-24T05:52:53.299Z,1108.00
2023-05-24T05:53:53.317Z,901.00
2023-05-24T05:54:53.281Z,879.00
2023-05-24T05:55:53.281Z,1080.00
2023-05-24T05:56:53.265Z,916.00
2023-05-24T05:57:53.759Z,891.00
2023-05-24T05:58:53.253Z,931.00
2023-05-24T05:59:53.250Z,971.00
2023-05-24T06:00:53.261Z,915.00
2023-05-24T06:01:53.215Z,832.00
2023-05-24T06:02:53.384Z,904.00
2023-05-24T06:03:53.409Z,935.00
2023-05-24T06:04:53.298Z,910.00
2023-05-24T06:05:53.265Z,901.00
2023-05-24T06:06:53.196Z,886.00
2023-05-24T06:07:53.229Z,886.00
2023-05-24T06:08:53.209Z,1067.00
2023-05-24T06:09:53.171Z,877.00
2023-05-24T06:10:53.261Z,1016.00
2023-05-24T06:11:53.192Z,1328.00
2023-05-24T06:12:53.203Z,1622.00
2023-05-24T06:13:53.131Z,1063.00
2023-05-24T06:14:53.163Z,986.00
2023-05-24T06:15:53.186Z,1138.00
2023-05-24T06:16:53.162Z,907.00
2023-05-24T06:17:53.161Z,914.00
2023-05-24T06:19:04.790Z,1081.00
2023-05-24T06:19:54.155Z,1092.00
2023-05-24T06:20:53.108Z,1162.00
2023-05-24T06:21:53.102Z,929.00
2023-05-24T06:22:53.099Z,925.00
2023-05-24T06:23:53.106Z,974.00
2023-05-24T06:24:53.078Z,878.00
2023-05-24T06:25:53.089Z,908.00
2023-05-24T06:26:53.056Z,823.00
2023-05-24T06:27:53.263Z,781.00
2023-05-24T06:28:53.041Z,786.00
2023-05-24T06:29:53.065Z,783.00
2023-05-24T06:30:53.094Z,782.00
2023-05-24T06:31:53.179Z,778.00
2023-05-24T06:32:53.100Z,907.00
2023-05-24T06:34:03.930Z,787.00
2023-05-24T06:34:53.998Z,922.00
2023-05-24T06:35:52.995Z,983.00
2023-05-24T06:36:53.060Z,996.00
2023-05-24T06:37:53.062Z,993.00
2023-05-24T06:38:53.024Z,1072.00
2023-05-24T06:39:52.999Z,1026.00
2023-05-24T06:40:53.006Z,1108.00
2023-05-24T06:41:53.076Z,1250.00
2023-05-24T06:42:53.044Z,1123.00
2023-05-24T06:43:53.310Z,1165.00
2023-05-24T06:44:53.120Z,1182.00
2023-05-24T06:45:53.222Z,1189.00
2023-05-24T06:46:53.255Z,1195.00
2023-05-24T06:47:53.373Z,1205.00
2023-05-24T06:48:53.441Z,1215.00
2023-05-24T06:49:53.394Z,1224.00
2023-05-24T06:50:53.463Z,1242.00
2023-05-24T06:51:53.462Z,1260.00
2023-05-24T06:52:53.790Z,1271.00
2023-05-24T06:53:53.595Z,1278.00
2023-05-24T06:54:53.601Z,1294.00
2023-05-24T06:55:55.484Z,1310.00
2023-05-24T06:56:53.629Z,1321.00
2023-05-24T06:57:53.614Z,1339.00
2023-05-24T06:58:53.657Z,1361.00
2023-05-24T06:59:53.583Z,1363.00
2023-05-24T07:00:53.592Z,1386.00
2023-05-24T07:01:53.610Z,1419.00
2023-05-24T07:02:53.642Z,1459.00
2023-05-24T07:03:53.591Z,1452.00
2023-05-24T07:04:53.608Z,1453.00
2023-05-24T07:05:53.560Z,1490.00
2023-05-24T07:06:53.561Z,1533.00
2023-05-24T07:07:53.571Z,1548.00
2023-05-24T07:08:53.531Z,1561.00
2023-05-24T07:09:53.549Z,1575.00
2023-05-24T07:10:53.543Z,1589.00
2023-05-24T07:11:53.497Z,1596.00
2023-05-24T07:12:53.509Z,1595.00
2023-05-24T07:13:53.495Z,1597.00
2023-05-24T07:14:53.488Z,1595.00
2023-05-24T07:15:53.463Z,1592.00
2023-05-24T07:16:53.566Z,1592.00
2023-05-24T07:17:53.504Z,1596.00
2023-05-24T07:18:53.494Z,1596.00
2023-05-24T07:19:53.498Z,1607.00
2023-05-24T07:20:53.746Z,1635.00
2023-05-24T07:21:53.420Z,1641.00
2023-05-24T07:22:53.427Z,1646.00
2023-05-24T07:23:53.432Z,1652.00
2023-05-24T07:24:53.442Z,1649.00
2023-05-24T07:25:53.436Z,1653.00
2023-05-24T07:26:53.449Z,1660.00
2023-05-24T07:27:53.399Z,1669.00
2023-05-24T07:28:53.416Z,1682.00
2023-05-24T07:29:53.382Z,1699.00
2023-05-24T07:30:53.702Z,1702.00
2023-05-24T07:31:53.430Z,1696.00
2023-05-24T07:32:53.575Z,1715.00
2023-05-24T07:33:53.849Z,1858.00
2023-05-24T07:34:53.370Z,1750.00
2023-05-24T07:35:53.351Z,1435.00
2023-05-24T07:36:53.351Z,1216.00
2023-05-24T07:37:53.368Z,1242.00
2023-05-24T07:38:53.810Z,1124.00
2023-05-24T07:39:53.311Z,1065.00
2023-05-24T07:40:53.338Z,1069.00
2023-05-24T07:41:53.517Z,1097.00
2023-05-24T07:42:53.363Z,1087.00
2023-05-24T07:43:53.310Z,1052.00
2023-05-24T07:44:53.321Z,840.00
2023-05-24T07:45:53.329Z,845.00
2023-05-24T07:46:53.308Z,861.00
2023-05-24T07:47:55.276Z,954.00
2023-05-24T07:48:53.298Z,927.00
2023-05-24T07:49:53.302Z,885.00
2023-05-24T07:50:53.290Z,877.00
2023-05-24T07:51:53.323Z,823.00
2023-05-24T07:52:53.279Z,800.00
2023-05-24T07:53:53.234Z,782.00
2023-05-24T07:54:53.214Z,759.00
2023-05-24T07:55:53.220Z,738.00
2023-05-24T07:56:53.195Z,723.00
2023-05-24T07:57:53.217Z,715.00
2023-05-24T07:58:53.211Z,690.00
2023-05-24T07:59:53.165Z,680.00
2023-05-24T08:00:53.230Z,670.00
2023-05-24T08:01:53.234Z,660.00
2023-05-24T08:02:53.265Z,652.00
2023-05-24T08:03:53.217Z,643.00
2023-05-24T08:04:53.136Z,635.00
2023-05-24T08:05:53.149Z,628.00
2023-05-24T08:06:53.231Z,623.00
2023-05-24T08:07:53.126Z,619.00
2023-05-24T08:08:53.127Z,614.00
2023-05-24T08:09:53.136Z,611.00
2023-05-24T08:10:53.090Z,608.00
2023-05-24T08:11:53.091Z,603.00
2023-05-24T08:12:53.092Z,598.00
2023-05-24T08:13:53.093Z,594.00
2023-05-24T08:14:53.081Z,590.00
2023-05-24T08:15:53.097Z,590.00
2023-05-24T08:16:53.093Z,589.00
2023-05-24T08:17:53.114Z,587.00
2023-05-24T08:18:54.952Z,586.00
2023-05-24T08:19:53.058Z,584.00
2023-05-24T08:20:53.048Z,581.00
2023-05-24T08:21:53.021Z,577.00
2023-05-24T08:22:53.057Z,580.00
2023-05-24T08:23:53.046Z,580.00
2023-05-24T08:24:53.190Z,580.00
2023-05-24T08:25:53.152Z,577.00
2023-05-24T08:26:53.130Z,575.00
2023-05-24T08:27:53.194Z,575.00
2023-05-24T08:28:53.221Z,575.00
2023-05-24T08:29:55.501Z,572.00
2023-05-24T08:30:53.229Z,569.00
2023-05-24T08:31:53.294Z,567.00
2023-05-24T08:32:53.221Z,566.00
2023-05-24T08:33:53.213Z,564.00
2023-05-24T08:35:03.556Z,561.00
2023-05-24T08:35:54.241Z,559.00
2023-05-24T08:36:53.165Z,558.00
2023-05-24T08:37:53.241Z,557.00
2023-05-24T08:38:53.167Z,557.00
2023-05-24T08:39:53.143Z,555.00
2023-05-24T08:40:53.143Z,554.00
2023-05-24T08:42:08.112Z,553.00
2023-05-24T08:42:54.154Z,551.00
2023-05-24T08:43:53.339Z,552.00
2023-05-24T08:44:53.100Z,552.00
2023-05-24T08:45:53.185Z,550.00
2023-05-24T08:46:53.086Z,550.00
2023-05-24T08:47:53.292Z,551.00
2023-05-24T08:48:55.324Z,552.00
2023-05-24T08:49:53.117Z,553.00
2023-05-24T08:50:53.093Z,553.00
2023-05-24T08:51:53.854Z,551.00
2023-05-24T08:52:53.095Z,551.00
2023-05-24T08:53:53.137Z,549.00
2023-05-24T08:54:53.221Z,548.00
2023-05-24T08:55:53.061Z,550.00
2023-05-24T08:56:53.188Z,552.00
2023-05-24T08:57:53.068Z,552.00
2023-05-24T08:58:53.044Z,552.00
2023-05-24T08:59:53.060Z,552.00
2023-05-24T09:00:53.118Z,552.00
2023-05-24T09:01:53.036Z,550.00
2023-05-24T09:02:53.094Z,551.00
2023-05-24T09:03:53.062Z,551.00
2023-05-24T09:04:53.020Z,550.00
2023-05-24T09:05:53.002Z,550.00
2023-05-24T09:06:53.022Z,552.00
2023-05-24T09:07:53.008Z,553.00
2023-05-24T09:08:52.982Z,552.00
2023-05-24T09:09:52.966Z,552.00
2023-05-24T09:10:55.472Z,553.00
2023-05-24T09:11:52.987Z,554.00
2023-05-24T09:12:52.983Z,555.00
2023-05-24T09:13:52.945Z,558.00
2023-05-24T09:14:52.976Z,556.00
2023-05-24T09:15:53.119Z,557.00
2023-05-24T09:16:52.943Z,555.00
2023-05-24T09:17:52.979Z,557.00
2023-05-24T09:18:52.959Z,558.00
2023-05-24T09:19:52.917Z,558.00
2023-05-24T09:20:53.077Z,556.00
2023-05-24T09:21:52.925Z,555.00
2023-05-24T09:22:52.913Z,557.00
2023-05-24T09:23:52.907Z,554.00
2023-05-24T09:24:52.946Z,554.00
2023-05-24T09:25:52.912Z,555.00
2023-05-24T09:26:52.862Z,557.00
2023-05-24T09:27:52.876Z,556.00
2023-05-24T09:28:52.898Z,553.00
2023-05-24T09:29:52.885Z,554.00
2023-05-24T09:30:52.852Z,554.00
2023-05-24T09:31:52.831Z,553.00
2023-05-24T09:32:52.840Z,551.00
2023-05-24T09:33:52.865Z,549.00
2023-05-24T09:34:52.825Z,549.00
2023-05-24T09:35:52.837Z,548.00
2023-05-24T09:36:52.862Z,549.00
2023-05-24T09:37:52.799Z,548.00
2023-05-24T09:38:52.803Z,549.00
2023-05-24T09:39:52.906Z,550.00
2023-05-24T09:40:52.917Z,691.00
2023-05-24T09:41:52.776Z,622.00
2023-05-24T09:42:52.875Z,625.00
2023-05-24T09:43:52.796Z,780.00
2023-05-24T09:44:53.043Z,835.00
2023-05-24T09:45:52.734Z,822.00
2023-05-24T09:46:52.817Z,893.00
2023-05-24T09:47:52.773Z,1172.00
2023-05-24T09:48:52.718Z,1074.00
2023-05-24T09:49:52.951Z,1323.00
2023-05-24T09:50:52.736Z,1072.00
2023-05-24T09:51:52.810Z,1023.00
2023-05-24T09:52:52.759Z,1021.00
2023-05-24T09:53:52.790Z,1182.00
2023-05-24T09:54:52.907Z,1248.00
2023-05-24T09:55:52.830Z,1124.00
2023-05-24T09:56:52.846Z,1354.00
2023-05-24T09:57:52.844Z,1191.00
2023-05-24T09:58:52.829Z,1195.00
2023-05-24T09:59:52.912Z,1289.00
2023-05-24T10:00:52.951Z,1309.00
2023-05-24T10:01:52.966Z,1198.00
2023-05-24T10:02:54.127Z,1544.00
2023-05-24T10:03:53.157Z,1405.00
2023-05-24T10:04:53.287Z,1579.00
2023-05-24T10:05:53.193Z,1612.00
2023-05-24T10:06:53.226Z,1915.00
2023-05-24T10:07:53.256Z,1487.00
2023-05-24T10:08:53.317Z,1322.00
2023-05-24T10:09:53.437Z,1321.00
2023-05-24T10:10:53.386Z,1326.00
2023-05-24T10:11:53.413Z,1349.00
2023-05-24T10:12:53.399Z,1378.00
2023-05-24T10:13:53.458Z,1360.00
2023-05-24T10:14:53.486Z,1378.00
2023-05-24T10:15:53.461Z,1468.00
2023-05-24T10:16:53.664Z,1431.00
2023-05-24T10:17:53.687Z,1424.00
2023-05-24T10:18:53.554Z,1530.00
2023-05-24T10:19:53.913Z,1641.00
2023-05-24T10:20:53.696Z,1856.00
2023-05-24T10:21:53.741Z,1691.00
2023-05-24T10:22:53.783Z,2028.00
2023-05-24T10:23:53.851Z,1911.00
2023-05-24T10:24:53.813Z,1580.00
2023-05-24T10:25:53.902Z,1786.00
2023-05-24T10:26:53.803Z,1583.00
2023-05-24T10:27:53.914Z,1532.00
2023-05-24T10:28:53.870Z,1691.00
2023-05-24T10:29:53.909Z,1639.00
2023-05-24T10:30:53.952Z,1636.00
2023-05-24T10:31:53.921Z,1609.00
2023-05-24T10:32:53.959Z,1557.00
2023-05-24T10:33:59.140Z,1557.00
2023-05-24T10:34:55.416Z,1624.00
2023-05-24T10:35:53.917Z,1895.00
2023-05-24T10:36:53.927Z,1899.00
2023-05-24T10:37:53.905Z,1680.00
2023-05-24T10:38:53.891Z,1616.00
2023-05-24T10:39:53.878Z,1577.00
2023-05-24T10:40:54.472Z,1541.00
2023-05-24T10:41:53.916Z,1424.00
2023-05-24T10:42:53.889Z,1404.00
2023-05-24T10:44:08.529Z,1406.00
2023-05-24T10:44:54.885Z,1406.00
2023-05-24T10:45:53.939Z,1407.00
2023-05-24T10:46:53.862Z,1407.00
2023-05-24T10:47:53.866Z,1397.00
2023-05-24T10:48:53.856Z,1387.00
2023-05-24T10:49:53.868Z,1372.00
2023-05-24T10:50:53.919Z,1352.00
2023-05-24T10:51:53.829Z,1337.00
2023-05-24T10:52:53.807Z,1317.00
2023-05-24T10:53:53.834Z,1273.00
2023-05-24T10:55:03.106Z,1271.00
2023-05-24T10:55:54.842Z,1271.00
2023-05-24T10:56:54.320Z,1270.00
2023-05-24T10:57:53.819Z,1268.00
2023-05-24T10:58:53.768Z,1277.00
2023-05-24T10:59:53.763Z,1275.00
2023-05-24T11:00:53.782Z,1270.00
2023-05-24T11:01:53.760Z,1241.00
2023-05-24T11:02:53.774Z,1210.00
2023-05-24T11:03:53.720Z,1197.00
2023-05-24T11:04:53.738Z,1192.00
2023-05-24T11:05:53.847Z,1187.00
2023-05-24T11:06:53.827Z,1182.00
2023-05-24T11:07:54.013Z,1180.00
2023-05-24T11:08:53.938Z,1179.00
2023-05-24T11:09:53.974Z,1179.00
2023-05-24T11:10:54.044Z,1178.00
2023-05-24T11:11:54.132Z,1170.00
2023-05-24T11:12:54.171Z,1163.00
2023-05-24T11:13:54.242Z,1159.00
2023-05-24T11:14:54.279Z,1151.00
2023-05-24T11:15:54.358Z,1144.00
2023-05-24T11:16:54.799Z,1134.00
2023-05-24T11:17:54.521Z,1126.00
2023-05-24T11:18:54.526Z,1123.00
2023-05-24T11:19:54.730Z,1124.00
2023-05-24T11:20:54.724Z,1115.00
2023-05-24T11:21:54.710Z,1106.00
2023-05-24T11:22:54.765Z,1104.00
2023-05-24T11:23:54.819Z,1102.00
2023-05-24T11:24:54.923Z,1096.00
2023-05-24T11:25:55.406Z,1086.00
2023-05-24T11:26:54.991Z,1046.00
2023-05-24T11:27:54.993Z,1052.00
2023-05-24T11:28:54.962Z,1057.00
2023-05-24T11:29:54.960Z,959.00
2023-05-24T11:30:55.448Z,959.00
2023-05-24T11:31:55.047Z,963.00
2023-05-24T11:32:55.116Z,963.00
2023-05-24T11:33:54.992Z,973.00
2023-05-24T11:34:54.992Z,978.00
2023-05-24T11:35:55.430Z,978.00
2023-05-24T11:36:55.008Z,978.00
2023-05-24T11:37:55.013Z,946.00
2023-05-24T11:38:54.987Z,914.00
2023-05-24T11:39:54.987Z,853.00
2023-05-24T11:40:55.034Z,866.00
2023-05-24T11:41:55.044Z,866.00
2023-05-24T11:42:55.008Z,864.00
2023-05-24T11:43:55.017Z,863.00
2023-05-24T11:44:55.068Z,863.00
2023-05-24T11:45:55.095Z,863.00
2023-05-24T11:46:55.073Z,859.00
2023-05-24T11:47:55.143Z,800.00
2023-05-24T11:48:55.101Z,795.00
2023-05-24T11:49:55.121Z,784.00
2023-05-24T11:50:55.389Z,790.00
2023-05-24T11:51:55.107Z,785.00
2023-05-24T11:52:55.121Z,783.00
2023-05-24T11:53:55.132Z,768.00
2023-05-24T11:54:55.152Z,763.00
2023-05-24T11:55:55.140Z,753.00
2023-05-24T11:56:55.174Z,744.00
2023-05-24T11:57:55.169Z,745.00
2023-05-24T11:58:55.147Z,741.00
2023-05-24T11:59:55.179Z,742.00
2023-05-24T12:00:55.176Z,745.00
2023-05-24T12:01:55.208Z,746.00
2023-05-24T12:02:57.100Z,743.00
2023-05-24T12:03:55.369Z,741.00
2023-05-24T12:04:55.352Z,742.00
2023-05-24T12:05:55.407Z,741.00
2023-05-24T12:06:55.387Z,737.00
2023-05-24T12:07:55.381Z,733.00
2023-05-24T12:08:55.386Z,732.00
2023-05-24T12:09:55.377Z,730.00
2023-05-24T12:10:55.365Z,728.00
2023-05-24T12:11:55.410Z,725.00
2023-05-24T12:12:55.385Z,722.00
2023-05-24T12:13:55.373Z,720.00
2023-05-24T12:14:55.405Z,719.00
2023-05-24T12:15:56.624Z,716.00
2023-05-24T12:16:55.495Z,714.00
2023-05-24T12:17:55.627Z,713.00
2023-05-24T12:19:05.326Z,712.00
2023-05-24T12:19:56.548Z,713.00
2023-05-24T12:20:55.483Z,713.00
2023-05-24T12:21:55.468Z,710.00
2023-05-24T12:22:55.525Z,710.00
2023-05-24T12:23:55.464Z,706.00
2023-05-24T12:24:55.462Z,704.00